createdAt,value
2022-10-23T00:02:17.050Z,7.30
2022-10-23T00:04:43.442Z,8.40
2022-10-23T00:07:09.810Z,7.07
2022-10-23T00:09:36.207Z,6.97
2022-10-23T00:12:02.640Z,7.63
2022-10-23T00:14:29.140Z,6.53
2022-10-23T00:16:55.585Z,6.38
2022-10-23T00:19:21.980Z,6.68
2022-10-23T00:21:48.458Z,6.03
2022-10-23T00:24:14.945Z,7.57
2022-10-23T00:26:41.440Z,6.20
2022-10-23T00:29:08.712Z,7.07
2022-10-23T00:31:35.195Z,5.85
2022-10-23T00:34:01.789Z,6.72
2022-10-23T00:36:28.196Z,6.82
2022-10-23T00:38:55.975Z,6.45
2022-10-23T00:41:24.064Z,6.40
2022-10-23T00:43:56.211Z,7.28
2022-10-23T00:46:22.743Z,6.30
2022-10-23T00:48:49.168Z,7.10
2022-10-23T00:51:15.597Z,6.43
2022-10-23T00:53:43.397Z,6.80
2022-10-23T00:56:09.805Z,7.10
2022-10-23T00:58:36.305Z,7.47
2022-10-23T01:01:02.868Z,6.07
2022-10-23T01:03:29.505Z,7.35
2022-10-23T01:05:55.883Z,6.68
2022-10-23T01:08:41.113Z,7.53
2022-10-23T01:11:14.199Z,8.35
2022-10-23T01:13:44.777Z,6.80
2022-10-23T01:16:18.717Z,7.05
2022-10-23T01:18:46.988Z,8.30
2022-10-23T01:21:17.183Z,7.18
2022-10-23T01:24:13.110Z,6.88
2022-10-23T01:26:57.862Z,7.63
2022-10-23T01:29:47.438Z,7.32
2022-10-23T01:32:39.028Z,7.68
2022-10-23T01:35:11.589Z,7.20
2022-10-23T01:37:46.631Z,7.43
2022-10-23T01:40:24.994Z,6.95
2022-10-23T01:42:54.986Z,7.47
2022-10-23T01:45:27.392Z,6.83
2022-10-23T01:47:55.259Z,7.35
2022-10-23T01:50:22.976Z,6.68
2022-10-23T01:52:49.523Z,7.32
2022-10-23T01:55:16.586Z,6.55
2022-10-23T01:57:45.820Z,7.75
2022-10-23T02:00:13.307Z,7.00
2022-10-23T02:02:41.758Z,7.15
2022-10-23T02:05:39.276Z,6.55
2022-10-23T02:08:06.318Z,6.78
2022-10-23T02:10:40.146Z,6.55
2022-10-23T02:13:12.057Z,7.30
2022-10-23T02:15:41.369Z,6.53
2022-10-23T02:18:14.281Z,6.40
2022-10-23T02:20:45.475Z,6.82
2022-10-23T02:23:22.882Z,5.72
2022-10-23T02:25:53.439Z,5.68
2022-10-23T02:28:22.580Z,6.07
2022-10-23T02:30:50.379Z,5.53
2022-10-23T02:33:17.471Z,5.53
2022-10-23T02:35:44.529Z,4.85
2022-10-23T02:38:28.741Z,5.07
2022-10-23T02:40:57.526Z,4.70
2022-10-23T02:43:26.505Z,4.70
2022-10-23T02:46:13.300Z,6.00
2022-10-23T02:48:42.931Z,4.60
2022-10-23T02:51:15.830Z,4.80
2022-10-23T02:54:00.452Z,5.40
2022-10-23T02:56:34.535Z,5.03
2022-10-23T02:59:24.743Z,4.80
2022-10-23T03:01:53.160Z,4.60
2022-10-23T03:04:21.192Z,5.05
2022-10-23T03:06:49.166Z,5.22
2022-10-23T03:09:15.561Z,5.53
2022-10-23T03:11:41.929Z,5.57
2022-10-23T03:14:08.375Z,6.03
2022-10-23T03:16:35.961Z,5.28
2022-10-23T03:19:02.571Z,5.50
2022-10-23T03:21:29.001Z,6.90
2022-10-23T03:23:55.543Z,5.20
2022-10-23T03:26:22.024Z,5.85
2022-10-23T03:28:48.374Z,5.65
2022-10-23T03:31:14.719Z,4.80
2022-10-23T03:33:41.070Z,6.45
2022-10-23T03:36:07.714Z,5.03
2022-10-23T03:38:34.299Z,4.97
2022-10-23T03:41:00.632Z,4.95
2022-10-23T03:43:26.992Z,4.60
2022-10-23T03:45:53.353Z,4.88
2022-10-23T03:48:19.913Z,4.93
2022-10-23T03:50:46.286Z,5.13
2022-10-23T03:53:12.668Z,4.88
2022-10-23T03:55:39.103Z,5.65
2022-10-23T03:58:07.763Z,5.88
2022-10-23T04:00:34.336Z,5.60
2022-10-23T04:03:00.712Z,6.13
2022-10-23T04:05:27.100Z,5.85
2022-10-23T04:07:53.450Z,5.93
2022-10-23T04:10:19.834Z,6.20
2022-10-23T04:12:46.304Z,5.93
2022-10-23T04:15:12.759Z,5.28
2022-10-23T04:17:39.159Z,5.72
2022-10-23T04:20:05.628Z,6.90
2022-10-23T04:22:31.982Z,6.15
2022-10-23T04:24:58.359Z,6.05
2022-10-23T04:27:24.782Z,5.93
2022-10-23T04:29:54.251Z,5.88
2022-10-23T04:32:23.244Z,5.68
2022-10-23T04:34:49.885Z,5.60
2022-10-23T04:37:16.276Z,5.60
2022-10-23T04:39:42.754Z,5.30
2022-10-23T04:42:09.153Z,4.78
2022-10-23T04:44:35.534Z,5.50
2022-10-23T04:47:01.989Z,5.15
2022-10-23T04:49:28.366Z,5.18
2022-10-23T04:51:54.741Z,4.65
2022-10-23T04:54:21.136Z,5.28
2022-10-23T04:56:47.501Z,4.70
2022-10-23T04:59:13.874Z,4.38
2022-10-23T05:01:40.417Z,3.97
2022-10-23T05:04:06.944Z,4.35
2022-10-23T05:06:33.370Z,4.10
2022-10-23T05:08:59.904Z,3.78
2022-10-23T05:11:26.311Z,3.67
2022-10-23T05:13:52.799Z,3.33
2022-10-23T05:16:32.532Z,2.92
2022-10-23T05:19:00.081Z,3.28
2022-10-23T05:21:28.721Z,2.80
2022-10-23T05:23:55.277Z,2.83
2022-10-23T05:26:22.480Z,2.90
2022-10-23T05:28:49.451Z,2.65
2022-10-23T05:31:16.410Z,2.25
2022-10-23T05:33:42.859Z,2.50
2022-10-23T05:36:09.514Z,2.58
2022-10-23T05:38:36.257Z,2.80
2022-10-23T05:41:03.158Z,2.70
2022-10-23T05:43:31.282Z,2.58
2022-10-23T05:45:58.113Z,2.30
2022-10-23T05:48:35.206Z,2.10
2022-10-23T05:51:09.345Z,2.47
2022-10-23T05:53:38.749Z,2.53
2022-10-23T05:56:08.558Z,2.83
2022-10-23T05:58:35.050Z,2.03
2022-10-23T06:01:05.235Z,3.35
2022-10-23T06:03:31.745Z,14.50
2022-10-23T06:05:58.126Z,5.57
2022-10-23T06:08:24.520Z,4.32
2022-10-23T06:10:50.998Z,2.40
2022-10-23T06:13:17.467Z,2.33
2022-10-23T06:15:43.906Z,2.17
2022-10-23T06:18:10.491Z,5.65
2022-10-23T06:20:37.641Z,27.00
2022-10-23T06:23:04.746Z,4.05
2022-10-23T06:25:31.535Z,12.80
2022-10-23T06:27:57.941Z,8.30
2022-10-23T06:30:24.898Z,6.70
2022-10-23T06:32:51.469Z,5.63
2022-10-23T06:35:17.814Z,5.30
2022-10-23T06:37:44.302Z,4.97
2022-10-23T06:40:10.829Z,6.60
2022-10-23T06:42:37.228Z,5.30
2022-10-23T06:45:06.425Z,4.10
2022-10-23T06:47:33.606Z,2.85
2022-10-23T06:50:01.428Z,3.95
2022-10-23T06:52:45.996Z,4.40
2022-10-23T06:55:13.947Z,2.75
2022-10-23T06:57:40.601Z,2.75
2022-10-23T07:00:16.207Z,2.33
2022-10-23T07:02:42.969Z,2.08
2022-10-23T07:05:12.775Z,2.25
2022-10-23T07:07:40.250Z,2.22
2022-10-23T07:10:06.810Z,1.88
2022-10-23T07:12:33.185Z,2.47
2022-10-23T07:14:59.559Z,2.38
2022-10-23T07:17:25.962Z,2.20
2022-10-23T07:19:52.393Z,2.38
2022-10-23T07:22:18.754Z,2.08
2022-10-23T07:24:45.271Z,2.47
2022-10-23T07:27:11.756Z,2.35
2022-10-23T07:29:38.417Z,2.00
2022-10-23T07:32:04.976Z,2.45
2022-10-23T07:34:32.153Z,2.58
2022-10-23T07:36:58.629Z,2.67
2022-10-23T07:39:24.998Z,2.60
2022-10-23T07:41:51.462Z,2.75
2022-10-23T07:44:17.852Z,2.67
2022-10-23T07:46:44.224Z,2.50
2022-10-23T07:49:13.670Z,3.97
2022-10-23T07:51:41.866Z,4.30
2022-10-23T07:54:10.541Z,3.65
2022-10-23T07:56:37.593Z,7.55
2022-10-23T07:59:04.781Z,16.65
2022-10-23T08:01:33.314Z,4.72
2022-10-23T08:04:00.164Z,7.13
2022-10-23T08:06:26.577Z,8.57
2022-10-23T08:08:52.979Z,8.55
2022-10-23T08:11:25.904Z,6.78
2022-10-23T08:13:53.044Z,7.78
2022-10-23T08:16:19.509Z,7.82
2022-10-23T08:18:46.093Z,6.80
2022-10-23T08:21:12.569Z,7.15
2022-10-23T08:23:39.117Z,6.95
2022-10-23T08:26:06.730Z,7.13
2022-10-23T08:28:33.456Z,7.72
2022-10-23T08:31:06.105Z,7.07
2022-10-23T08:33:32.526Z,7.85
2022-10-23T08:35:58.937Z,9.25
2022-10-23T08:38:25.442Z,9.93
2022-10-23T08:40:52.670Z,11.52
2022-10-23T08:43:21.970Z,9.88
2022-10-23T08:45:53.849Z,6.95
2022-10-23T08:48:23.109Z,6.90
2022-10-23T08:50:51.648Z,7.55
2022-10-23T08:53:33.214Z,5.68
2022-10-23T08:56:02.876Z,6.38
2022-10-23T08:58:49.579Z,6.00
2022-10-23T09:01:31.834Z,5.43
2022-10-23T09:03:58.817Z,5.18
2022-10-23T09:06:35.434Z,5.60
2022-10-23T09:09:04.905Z,6.38
2022-10-23T09:11:38.519Z,5.65
2022-10-23T09:14:05.106Z,5.53
2022-10-23T09:16:51.772Z,4.20
2022-10-23T09:19:19.757Z,4.88
2022-10-23T09:21:47.088Z,4.60
2022-10-23T09:24:18.060Z,3.83
2022-10-23T09:29:19.684Z,3.70
2022-10-23T09:31:53.758Z,3.78
2022-10-23T09:34:22.355Z,3.45
2022-10-23T09:37:12.213Z,3.60
2022-10-23T09:39:38.571Z,4.13
2022-10-23T09:42:21.762Z,3.75
2022-10-23T09:44:51.664Z,3.40
2022-10-23T09:47:22.744Z,3.60
2022-10-23T09:49:53.339Z,4.00
2022-10-23T09:52:24.982Z,3.53
2022-10-23T09:54:59.163Z,4.10
2022-10-23T09:57:41.075Z,3.60
2022-10-23T10:00:28.056Z,3.85
2022-10-23T10:02:57.437Z,4.28
2022-10-23T10:05:25.826Z,3.83
2022-10-23T10:08:00.260Z,3.90
2022-10-23T10:10:29.507Z,4.05
2022-10-23T10:13:01.841Z,4.50
2022-10-23T10:15:31.580Z,3.70
2022-10-23T10:18:03.890Z,5.57
2022-10-23T10:20:30.180Z,3.72
2022-10-23T10:22:59.664Z,3.95
2022-10-23T10:25:42.288Z,3.35
2022-10-23T10:28:27.371Z,3.70
2022-10-23T10:31:11.636Z,4.20
2022-10-23T10:33:49.354Z,5.28
2022-10-23T10:36:36.714Z,4.78
2022-10-23T10:39:04.660Z,5.22
2022-10-23T10:41:37.377Z,5.22
2022-10-23T10:44:22.452Z,4.63
2022-10-23T10:46:59.716Z,3.00
2022-10-23T10:49:35.717Z,2.35
2022-10-23T10:52:02.162Z,1.85
2022-10-23T10:54:43.533Z,2.17
2022-10-23T10:57:16.746Z,1.60
2022-10-23T10:59:44.455Z,1.25
2022-10-23T11:02:17.053Z,1.75
2022-10-23T11:04:52.725Z,1.70
2022-10-23T11:07:22.099Z,1.80
2022-10-23T11:09:49.088Z,1.75
2022-10-23T11:12:20.661Z,2.47
2022-10-23T11:14:47.088Z,2.03
2022-10-23T11:17:35.225Z,2.83
2022-10-23T11:20:07.792Z,2.13
2022-10-23T11:22:42.420Z,1.67
2022-10-23T11:25:18.099Z,2.60
2022-10-23T11:28:03.673Z,2.20
2022-10-23T11:30:50.033Z,4.60
2022-10-23T11:33:32.001Z,3.90
2022-10-23T11:36:07.021Z,3.22
2022-10-23T11:38:34.982Z,3.30
2022-10-23T11:41:19.918Z,2.90
2022-10-23T11:43:57.113Z,4.93
2022-10-23T11:46:23.472Z,3.42
2022-10-23T11:48:50.489Z,3.17
2022-10-23T11:51:25.773Z,3.33
2022-10-23T11:53:52.148Z,2.85
2022-10-23T11:56:19.638Z,4.28
2022-10-23T11:58:50.512Z,3.90
2022-10-23T12:01:19.898Z,4.90
2022-10-23T12:03:58.564Z,3.25
2022-10-23T12:06:27.105Z,4.90
2022-10-23T12:08:55.040Z,4.28
2022-10-23T12:11:29.610Z,3.40
2022-10-23T12:13:56.352Z,3.25
2022-10-23T12:16:22.705Z,2.17
2022-10-23T12:18:50.744Z,2.17
2022-10-23T12:21:19.083Z,1.92
2022-10-23T12:23:48.539Z,1.95
2022-10-23T12:26:21.102Z,1.90
2022-10-23T12:28:59.071Z,2.03
2022-10-23T12:31:29.801Z,1.33
2022-10-23T12:34:16.887Z,1.63
2022-10-23T12:36:52.250Z,1.70
2022-10-23T12:39:25.565Z,1.73
2022-10-23T12:41:51.925Z,1.52
2022-10-23T12:44:18.363Z,1.45
2022-10-23T12:46:49.044Z,1.30
2022-10-23T12:49:17.165Z,1.60
2022-10-23T12:51:43.645Z,1.80
2022-10-23T12:54:15.123Z,1.63
2022-10-23T12:56:41.458Z,2.17
2022-10-23T12:59:14.516Z,1.58
2022-10-23T13:01:43.280Z,2.47
2022-10-23T13:04:28.663Z,1.48
2022-10-23T13:07:00.045Z,1.80
2022-10-23T13:09:34.857Z,1.67
2022-10-23T13:12:02.607Z,1.63
2022-10-23T13:14:43.591Z,1.73
2022-10-23T13:17:11.744Z,1.52
2022-10-23T13:19:38.186Z,1.65
2022-10-23T13:22:14.697Z,2.08
2022-10-23T13:24:41.329Z,2.03
2022-10-23T13:27:26.893Z,1.85
2022-10-23T13:29:53.311Z,1.70
2022-10-23T13:32:28.601Z,1.70
2022-10-23T13:35:20.360Z,1.60
2022-10-23T13:37:48.592Z,1.58
2022-10-23T13:40:25.992Z,1.67
2022-10-23T13:42:56.185Z,3.05
2022-10-23T13:45:23.705Z,1.42
2022-10-23T13:47:50.342Z,2.20
2022-10-23T13:50:17.134Z,2.22
2022-10-23T13:52:43.503Z,1.73
2022-10-23T13:55:22.961Z,1.83
2022-10-23T13:57:49.377Z,1.60
2022-10-23T14:00:16.252Z,2.00
2022-10-23T14:02:42.782Z,2.88
2022-10-23T14:05:09.762Z,2.40
2022-10-23T14:07:38.443Z,1.80
2022-10-23T14:10:05.131Z,1.60
2022-10-23T14:12:31.545Z,1.60
2022-10-23T14:14:57.962Z,1.38
2022-10-23T14:17:24.328Z,1.67
2022-10-23T14:19:50.691Z,1.80
2022-10-23T14:22:18.102Z,2.00
2022-10-23T14:25:04.760Z,2.25
2022-10-23T14:27:31.317Z,2.45
2022-10-23T14:30:01.528Z,2.00
2022-10-23T14:32:28.196Z,2.25
2022-10-23T14:34:54.792Z,2.70
2022-10-23T14:37:21.460Z,2.55
2022-10-23T14:39:50.113Z,2.08
2022-10-23T14:42:17.016Z,2.13
2022-10-23T14:44:43.788Z,1.92
2022-10-23T14:47:12.494Z,2.65
2022-10-23T14:49:40.319Z,2.28
2022-10-23T14:52:07.531Z,2.25
2022-10-23T14:54:35.386Z,2.70
2022-10-23T14:57:02.336Z,3.15
2022-10-23T14:59:28.917Z,2.72
2022-10-23T15:01:55.507Z,3.03
2022-10-23T15:04:22.050Z,3.80
2022-10-23T15:06:48.625Z,3.33
2022-10-23T15:09:15.409Z,4.00
2022-10-23T15:11:42.586Z,2.90
2022-10-23T15:14:09.078Z,2.88
2022-10-23T15:16:41.443Z,5.75
2022-10-23T15:19:10.891Z,2.33
2022-10-23T15:21:40.051Z,1.30
2022-10-23T15:24:06.638Z,1.98
2022-10-23T15:26:33.009Z,2.40
2022-10-23T15:29:00.782Z,1.10
2022-10-23T15:31:30.309Z,1.10
2022-10-23T15:33:57.682Z,0.80
2022-10-23T15:36:24.117Z,0.68
2022-10-23T15:38:50.764Z,0.80
2022-10-23T15:41:19.849Z,0.70
2022-10-23T15:43:46.421Z,1.00
2022-10-23T15:46:12.951Z,1.10
2022-10-23T15:48:39.456Z,1.85
2022-10-23T15:51:06.187Z,2.38
2022-10-23T15:53:34.299Z,2.45
2022-10-23T15:56:03.866Z,1.52
2022-10-23T15:58:30.463Z,1.48
2022-10-23T16:00:57.094Z,1.70
2022-10-23T16:03:23.788Z,2.85
2022-10-23T16:05:50.435Z,4.05
2022-10-23T16:08:16.949Z,4.57
2022-10-23T16:10:43.452Z,4.15
2022-10-23T16:13:09.893Z,4.20
2022-10-23T16:15:36.666Z,2.15
2022-10-23T16:18:03.611Z,3.60
2022-10-23T16:20:30.386Z,3.75
2022-10-23T16:22:56.826Z,6.18
2022-10-23T16:25:23.485Z,3.70
2022-10-23T16:27:50.082Z,2.17
2022-10-23T16:30:16.716Z,1.60
2022-10-23T16:32:43.504Z,1.80
2022-10-23T16:35:12.987Z,1.88
2022-10-23T16:37:39.753Z,1.63
2022-10-23T16:40:06.627Z,2.33
2022-10-23T16:42:33.606Z,2.00
2022-10-23T16:45:00.119Z,2.40
2022-10-23T16:47:26.624Z,2.83
2022-10-23T16:49:54.111Z,2.15
2022-10-23T16:52:20.841Z,2.88
2022-10-23T16:54:50.708Z,1.70
2022-10-23T16:57:17.340Z,3.10
2022-10-23T16:59:43.948Z,3.00
2022-10-23T17:02:11.393Z,2.33
2022-10-23T17:04:38.659Z,2.00
2022-10-23T17:07:05.580Z,1.80
2022-10-23T17:09:32.340Z,3.42
2022-10-23T17:12:01.974Z,3.22
2022-10-23T17:14:31.556Z,2.08
2022-10-23T17:16:59.836Z,1.52
2022-10-23T17:19:43.806Z,1.33
2022-10-23T17:22:12.664Z,1.65
2022-10-23T17:24:40.169Z,1.70
2022-10-23T17:27:06.774Z,1.70
2022-10-23T17:29:33.361Z,4.93
2022-10-23T17:31:59.849Z,4.70
2022-10-23T17:34:26.374Z,3.92
2022-10-23T17:36:54.643Z,4.55
2022-10-23T17:39:22.720Z,3.88
2022-10-23T17:41:49.352Z,3.63
2022-10-23T17:44:15.922Z,3.25
2022-10-23T17:46:42.380Z,3.92
2022-10-23T17:49:10.149Z,5.05
2022-10-23T17:51:36.717Z,5.20
2022-10-23T17:54:05.371Z,4.07
2022-10-23T17:56:33.003Z,3.80
2022-10-23T17:59:00.904Z,5.07
2022-10-23T18:01:28.213Z,3.92
2022-10-23T18:03:55.419Z,5.97
2022-10-23T18:06:32.747Z,5.45
2022-10-23T18:09:00.713Z,5.65
2022-10-23T18:11:30.943Z,3.45
2022-10-23T18:16:25.546Z,7.78
2022-10-23T18:18:52.746Z,4.03
2022-10-23T18:21:20.659Z,6.53
2022-10-23T18:23:49.926Z,5.63
2022-10-23T18:26:18.354Z,4.50
2022-10-23T18:28:48.037Z,3.22
2022-10-23T18:31:15.324Z,3.28
2022-10-23T18:33:42.046Z,2.97
2022-10-23T18:36:23.023Z,3.22
2022-10-23T18:38:50.103Z,3.67
2022-10-23T18:41:17.175Z,3.55
2022-10-23T18:43:44.856Z,4.25
2022-10-23T18:46:14.784Z,4.10
2022-10-23T18:48:43.531Z,4.63
2022-10-23T18:51:18.007Z,4.50
2022-10-23T18:53:46.918Z,3.50
2022-10-23T18:56:14.394Z,3.28
2022-10-23T18:58:40.928Z,3.80
2022-10-23T19:01:07.571Z,3.90
2022-10-23T19:03:34.121Z,4.43
2022-10-23T19:06:00.733Z,4.30
2022-10-23T19:08:27.414Z,4.20
2022-10-23T19:11:00.237Z,3.85
2022-10-23T19:13:28.243Z,4.72
2022-10-23T19:15:55.018Z,5.50
2022-10-23T19:18:21.721Z,4.72
2022-10-23T19:20:48.556Z,4.93
2022-10-23T19:23:16.062Z,5.13
2022-10-23T19:25:44.963Z,5.75
2022-10-23T19:28:11.620Z,5.15
2022-10-23T19:30:38.224Z,5.32
2022-10-23T19:33:04.862Z,5.68
2022-10-23T19:35:32.653Z,5.35
2022-10-23T19:37:59.342Z,5.20
2022-10-23T19:40:26.201Z,4.97
2022-10-23T19:42:54.329Z,5.28
2022-10-23T19:45:20.946Z,5.07
2022-10-23T19:47:48.186Z,5.40
2022-10-23T19:50:14.771Z,4.90
2022-10-23T19:52:41.320Z,6.28
2022-10-23T19:55:09.002Z,5.32
2022-10-23T19:57:35.708Z,6.03
2022-10-23T20:00:02.537Z,5.30
2022-10-23T20:02:33.173Z,5.15
2022-10-23T20:04:59.733Z,5.60
2022-10-23T20:07:26.447Z,5.60
2022-10-23T20:09:53.026Z,5.95
2022-10-23T20:12:19.452Z,5.40
2022-10-23T20:14:45.933Z,6.68
2022-10-23T20:17:12.574Z,5.32
2022-10-23T20:19:42.166Z,5.47
2022-10-23T20:22:08.679Z,5.63
2022-10-23T20:24:35.256Z,6.47
2022-10-23T20:27:01.819Z,4.95
2022-10-23T20:29:28.257Z,4.88
2022-10-23T20:31:54.673Z,5.47
2022-10-23T20:34:21.225Z,5.35
2022-10-23T20:36:52.020Z,5.50
2022-10-23T20:39:20.172Z,5.10
2022-10-23T20:41:47.051Z,5.43
2022-10-23T20:44:14.696Z,5.70
2022-10-23T20:46:41.580Z,4.78
2022-10-23T20:49:08.349Z,5.20
2022-10-23T20:51:36.149Z,4.95
2022-10-23T20:54:06.228Z,5.35
2022-10-23T20:56:37.414Z,5.03
2022-10-23T20:59:11.058Z,4.75
2022-10-23T21:01:40.113Z,4.57
2022-10-23T21:04:06.741Z,5.25
2022-10-23T21:06:45.682Z,4.20
2022-10-23T21:09:18.605Z,4.45
2022-10-23T21:11:45.073Z,4.57
2022-10-23T21:14:11.546Z,4.70
2022-10-23T21:16:40.883Z,4.30
2022-10-23T21:19:08.233Z,4.28
2022-10-23T21:21:35.076Z,4.50
2022-10-23T21:24:06.402Z,4.55
2022-10-23T21:26:35.292Z,4.20
2022-10-23T21:29:17.288Z,4.38
2022-10-23T21:31:44.316Z,3.63
2022-10-23T21:36:48.611Z,4.05
2022-10-23T21:39:23.950Z,4.50
2022-10-23T21:41:50.493Z,4.13
2022-10-23T21:44:17.102Z,4.88
2022-10-23T21:46:44.259Z,4.40
2022-10-23T21:49:11.638Z,4.30
2022-10-23T21:51:38.645Z,5.10
2022-10-23T21:54:06.098Z,4.93
2022-10-23T21:56:38.022Z,4.93
2022-10-23T22:01:34.157Z,3.95
2022-10-23T22:04:00.751Z,4.30
2022-10-23T22:06:28.685Z,4.28
2022-10-23T22:08:56.432Z,4.10
2022-10-23T22:11:23.214Z,4.20
2022-10-23T22:13:49.755Z,4.40
2022-10-23T22:16:16.538Z,4.55
2022-10-23T22:18:43.518Z,5.15
2022-10-23T22:21:11.830Z,4.75
2022-10-23T22:23:38.740Z,4.13
2022-10-23T22:26:10.383Z,4.65
2022-10-23T22:28:36.993Z,4.63
2022-10-23T22:31:04.625Z,4.93
2022-10-23T22:33:31.003Z,5.72
2022-10-23T22:36:03.614Z,4.70
2022-10-23T22:38:32.378Z,4.65
2022-10-23T22:41:02.047Z,4.32
2022-10-23T22:43:29.065Z,5.85
2022-10-23T22:46:15.641Z,4.65
2022-10-23T22:48:42.012Z,4.82
2022-10-23T22:51:10.460Z,4.10
2022-10-23T22:53:36.829Z,4.18
2022-10-23T22:56:10.294Z,4.82
2022-10-23T22:58:36.934Z,4.20
2022-10-23T23:01:08.436Z,4.65
2022-10-23T23:03:36.720Z,4.78
2022-10-23T23:06:04.227Z,5.03
2022-10-23T23:08:30.638Z,5.82
2022-10-23T23:10:57.372Z,5.10
2022-10-23T23:13:23.949Z,4.30
2022-10-23T23:15:50.478Z,4.90
2022-10-23T23:18:16.871Z,4.65
2022-10-23T23:20:43.504Z,4.47
2022-10-23T23:23:10.407Z,4.45
2022-10-23T23:25:40.085Z,4.53
2022-10-23T23:28:06.677Z,4.50
2022-10-23T23:30:33.174Z,4.47
2022-10-23T23:32:59.599Z,5.25
2022-10-23T23:35:25.973Z,4.40
2022-10-23T23:37:52.468Z,5.30
2022-10-23T23:40:19.036Z,4.95
2022-10-23T23:42:46.934Z,4.35
2022-10-23T23:45:15.198Z,4.40
2022-10-23T23:47:42.247Z,4.25
2022-10-23T23:50:10.022Z,5.00
2022-10-23T23:52:36.443Z,4.00
2022-10-23T23:55:02.995Z,4.45
2022-10-23T23:57:29.386Z,4.10
2022-10-23T23:59:55.849Z,4.53
